Time;durP1;ratioP1;P1;durP2;ratioP2;P2;SDS_P1;SDS_P2;PMS_P1;PMS_P2;Temp;Humidity;BMP_temperature;BMP_pressure;BME280_temperature;BME280_humidity;BME280_pressure;Samples;Min_cycle;Max_cycle;Signal;HPM_P1;HPM_P2
2023/04/16 04:02:48;;;;;;;3.00;2.47;;;9.30;89.90;;;;;;5086170;23;20497;-74
2023/04/16 04:05:15;;;;;;;3.60;2.87;;;9.30;89.40;;;;;;4993608;28;20488;-74
2023/04/16 04:07:41;;;;;;;3.30;2.90;;;9.20;89.30;;;;;;4994117;28;20446;-75
2023/04/16 04:10:09;;;;;;;2.70;2.20;;;9.20;89.80;;;;;;4994024;28;20479;-75
2023/04/16 04:12:36;;;;;;;2.87;2.47;;;9.20;89.60;;;;;;4993941;28;20465;-74
2023/04/16 04:15:03;;;;;;;3.43;2.90;;;9.10;90.00;;;;;;4994036;28;20480;-74
2023/04/16 04:17:29;;;;;;;3.33;2.50;;;9.00;90.20;;;;;;4994614;28;20458;-74
2023/04/16 04:19:57;;;;;;;4.00;3.60;;;8.90;90.80;;;;;;4993998;28;20453;-75
2023/04/16 04:22:24;;;;;;;3.27;2.30;;;9.00;90.70;;;;;;4993934;28;20527;-74
2023/04/16 04:24:51;;;;;;;3.57;2.60;;;9.10;90.40;;;;;;4993838;28;20481;-73
2023/04/16 04:27:17;;;;;;;3.90;3.40;;;9.10;90.30;;;;;;4993920;28;20507;-74
2023/04/16 04:29:44;;;;;;;3.57;3.10;;;9.10;90.40;;;;;;4993962;28;20453;-74
2023/04/16 04:32:10;;;;;;;3.60;3.17;;;9.10;90.10;;;;;;4993754;28;20902;-73
2023/04/16 04:34:37;;;;;;;3.70;3.30;;;9.10;90.10;;;;;;4993536;28;20985;-74
2023/04/16 04:37:05;;;;;;;3.60;2.77;;;9.10;90.20;;;;;;4993786;28;20503;-73
2023/04/16 04:39:32;;;;;;;2.93;2.50;;;9.10;90.30;;;;;;4993775;28;20499;-74
2023/04/16 04:41:58;;;;;;;3.13;2.63;;;9.10;90.00;;;;;;4993653;28;20473;-74
2023/04/16 04:44:25;;;;;;;2.77;2.27;;;9.10;90.20;;;;;;4993664;28;20539;-74
2023/04/16 04:46:52;;;;;;;3.00;2.47;;;9.10;90.00;;;;;;4993694;28;20449;-74
2023/04/16 04:49:18;;;;;;;2.87;2.20;;;9.10;90.40;;;;;;4993699;28;20480;-74
2023/04/16 04:51:45;;;;;;;3.97;2.70;;;9.20;90.40;;;;;;4993496;28;20469;-74
2023/04/16 04:54:13;;;;;;;3.10;2.63;;;9.30;89.80;;;;;;4993308;28;20457;-74
2023/04/16 04:56:39;;;;;;;3.63;2.40;;;9.30;89.80;;;;;;4993610;28;20569;-74
2023/04/16 04:59:06;;;;;;;3.77;3.37;;;9.30;89.50;;;;;;4993780;28;20449;-74
2023/04/16 05:01:33;;;;;;;3.20;2.40;;;9.20;89.70;;;;;;4993380;28;20527;-74
2023/04/16 05:03:59;;;;;;;2.80;2.40;;;9.10;90.00;;;;;;4993504;28;20457;-74
2023/04/16 05:06:26;;;;;;;2.80;2.13;;;9.10;90.40;;;;;;4993528;28;20453;-74
2023/04/16 05:08:53;;;;;;;3.30;2.93;;;9.10;90.40;;;;;;4993489;28;20511;-73
2023/04/16 05:11:21;;;;;;;3.63;2.90;;;9.10;90.40;;;;;;4993417;28;20468;-74
2023/04/16 05:13:47;;;;;;;3.40;2.97;;;9.10;90.60;;;;;;4993166;28;20798;-74
2023/04/16 05:16:14;;;;;;;4.40;3.57;;;9.10;90.60;;;;;;4994535;28;20500;-74
2023/04/16 05:18:41;;;;;;;3.80;3.30;;;9.30;90.30;;;;;;4997118;28;20504;-74
2023/04/16 05:21:08;;;;;;;3.40;2.80;;;9.20;89.80;;;;;;4996729;28;20899;-74
2023/04/16 05:23:35;;;;;;;3.60;2.67;;;9.10;90.10;;;;;;4997044;28;20482;-73
2023/04/16 05:26:01;;;;;;;3.50;2.47;;;9.20;90.40;;;;;;4996935;28;20485;-74
2023/04/16 05:28:31;;;;;;;3.00;2.30;;;9.10;89.90;;;;;;4996698;28;20452;-74
2023/04/16 05:30:57;;;;;;;4.17;3.07;;;8.90;90.60;;;;;;4996574;28;20896;-74
2023/04/16 05:33:24;;;;;;;3.30;2.60;;;9.00;90.90;;;;;;4996570;28;20450;-74
2023/04/16 05:35:51;;;;;;;3.10;2.80;;;9.00;90.60;;;;;;4996839;28;20447;-74
2023/04/16 05:38:18;;;;;;;4.00;3.23;;;9.10;90.50;;;;;;4996538;28;20809;-74
2023/04/16 05:40:44;;;;;;;5.10;4.17;;;9.20;90.20;;;;;;4996672;28;20469;-74
2023/04/16 05:43:11;;;;;;;5.03;4.47;;;9.10;90.50;;;;;;4996661;28;20453;-74
2023/04/16 05:45:40;;;;;;;4.77;4.27;;;9.10;90.60;;;;;;4996574;28;20480;-74
2023/04/16 05:48:07;;;;;;;4.90;3.90;;;9.10;90.80;;;;;;4996633;28;20460;-74
2023/04/16 05:50:34;;;;;;;5.60;5.10;;;9.10;90.80;;;;;;4996495;28;20528;-74
2023/04/16 05:53:02;;;;;;;5.40;4.90;;;9.10;91.10;;;;;;4996207;28;20953;-74
2023/04/16 05:55:28;;;;;;;5.63;5.13;;;9.10;91.10;;;;;;4996528;28;20450;-74
2023/04/16 05:57:55;;;;;;;6.27;5.10;;;9.00;91.20;;;;;;4996494;28;20795;-74
2023/04/16 06:00:22;;;;;;;6.97;6.30;;;9.10;91.20;;;;;;4996328;28;20520;-75
2023/04/16 06:02:50;;;;;;;7.10;6.50;;;9.10;91.10;;;;;;4996255;28;20874;-74
2023/04/16 06:05:17;;;;;;;6.30;5.80;;;9.10;91.00;;;;;;4996786;28;20563;-75
2023/04/16 06:07:44;;;;;;;6.80;6.00;;;9.20;91.10;;;;;;4996209;28;20441;-74
2023/04/16 06:10:11;;;;;;;7.50;6.80;;;9.20;91.00;;;;;;4996145;28;20816;-73
2023/04/16 06:12:37;;;;;;;6.23;5.60;;;9.10;90.90;;;;;;4995804;28;20473;-74
2023/04/16 06:15:05;;;;;;;7.53;6.83;;;9.10;91.50;;;;;;4996193;28;20454;-74
2023/04/16 06:17:31;;;;;;;7.77;6.97;;;9.20;91.80;;;;;;4996265;28;20524;-74
2023/04/16 06:19:59;;;;;;;6.60;6.00;;;9.30;92.10;;;;;;4996214;28;20460;-74
2023/04/16 06:22:26;;;;;;;8.20;7.40;;;9.40;91.40;;;;;;4996048;28;20474;-74
2023/04/16 06:24:53;;;;;;;8.03;7.33;;;9.50;91.00;;;;;;4996473;28;20493;-75
2023/04/16 06:27:20;;;;;;;7.20;6.50;;;9.60;90.60;;;;;;4995507;28;20453;-74
2023/04/16 06:29:46;;;;;;;7.37;6.67;;;9.70;90.30;;;;;;4995922;28;20459;-73
2023/04/16 06:32:13;;;;;;;8.20;7.50;;;9.60;89.70;;;;;;4995624;28;20465;-74
2023/04/16 06:34:40;;;;;;;7.10;6.40;;;9.70;89.40;;;;;;4995611;28;20453;-74
2023/04/16 06:37:08;;;;;;;6.73;6.13;;;9.50;89.40;;;;;;4995811;28;20490;-73
2023/04/16 06:39:35;;;;;;;7.97;7.17;;;9.50;89.70;;;;;;4995949;28;20450;-74
2023/04/16 06:42:02;;;;;;;8.70;7.40;;;9.40;89.60;;;;;;4995508;28;20990;-75
2023/04/16 06:44:28;;;;;;;8.77;7.20;;;9.40;90.00;;;;;;4995588;28;20449;-74
2023/04/16 06:46:55;;;;;;;10.73;7.40;;;9.40;90.10;;;;;;4995378;28;21106;-74
2023/04/16 06:49:22;;;;;;;7.80;7.10;;;9.50;90.10;;;;;;4995606;28;20453;-74
2023/04/16 06:51:48;;;;;;;7.80;7.03;;;9.40;89.90;;;;;;4995365;28;20473;-75
2023/04/16 06:54:17;;;;;;;7.87;7.07;;;9.40;90.00;;;;;;4995547;28;20449;-74
2023/04/16 06:56:44;;;;;;;9.10;8.20;;;9.40;90.10;;;;;;4995379;28;20445;-75
2023/04/16 06:59:11;;;;;;;8.00;7.20;;;9.40;90.10;;;;;;4995208;28;20481;-75
2023/04/16 07:01:37;;;;;;;8.03;7.33;;;9.40;90.20;;;;;;4994950;28;20481;-74
2023/04/16 07:04:04;;;;;;;8.40;7.60;;;9.50;90.00;;;;;;4995283;28;20457;-73
2023/04/16 07:06:31;;;;;;;8.10;7.30;;;9.40;89.90;;;;;;4995016;28;20568;-74
2023/04/16 07:08:58;;;;;;;8.33;7.60;;;9.40;89.90;;;;;;4995154;28;20476;-75
2023/04/16 07:11:26;;;;;;;8.50;7.70;;;9.40;90.10;;;;;;4995173;28;20481;-75
2023/04/16 07:13:53;;;;;;;9.40;8.50;;;9.40;90.10;;;;;;4995246;28;20461;-75
2023/04/16 07:16:20;;;;;;;7.67;6.97;;;9.20;90.30;;;;;;4995105;28;20441;-75
2023/04/16 07:18:46;;;;;;;7.97;7.17;;;9.30;90.70;;;;;;4995074;28;20450;-74
2023/04/16 07:21:13;;;;;;;8.03;7.30;;;9.30;90.50;;;;;;4994978;28;20473;-74
2023/04/16 07:23:40;;;;;;;8.80;8.00;;;9.40;90.30;;;;;;4994898;28;20474;-75
2023/04/16 07:26:06;;;;;;;8.60;7.80;;;9.40;90.50;;;;;;4994743;28;20530;-74
2023/04/16 07:28:34;;;;;;;9.00;8.20;;;9.40;90.10;;;;;;4994809;28;20496;-74
2023/04/16 07:31:01;;;;;;;8.07;7.27;;;9.40;90.00;;;;;;4994677;28;20476;-77
2023/04/16 07:33:28;;;;;;;7.83;7.17;;;9.40;90.00;;;;;;4994651;28;20445;-75
2023/04/16 07:35:54;;;;;;;8.80;7.67;;;9.40;90.10;;;;;;4994643;28;20452;-75
2023/04/16 07:38:21;;;;;;;8.80;8.00;;;9.30;90.00;;;;;;4994039;28;20453;-75
2023/04/16 07:40:47;;;;;;;8.30;7.60;;;9.40;90.30;;;;;;4994324;28;20500;-75
2023/04/16 07:43:15;;;;;;;8.07;7.27;;;9.40;90.00;;;;;;4994219;28;20989;-75
2023/04/16 07:45:43;;;;;;;8.50;7.70;;;9.50;90.00;;;;;;4994395;28;20481;-75
2023/04/16 07:48:09;;;;;;;8.47;7.63;;;9.40;89.90;;;;;;4994478;28;20453;-75
2023/04/16 07:50:36;;;;;;;6.80;6.20;;;9.50;90.10;;;;;;4994413;28;20433;-75
2023/04/16 07:53:04;;;;;;;7.30;6.60;;;9.50;90.00;;;;;;4994389;28;20458;-75
2023/04/16 07:55:31;;;;;;;6.93;6.20;;;9.50;90.00;;;;;;4994354;28;20445;-75
2023/04/16 07:57:57;;;;;;;7.50;6.90;;;9.50;90.20;;;;;;4994274;28;20508;-75
2023/04/16 08:00:25;;;;;;;7.33;6.63;;;9.60;89.80;;;;;;4994225;28;20458;-76
2023/04/16 08:02:53;;;;;;;6.60;6.00;;;9.60;89.60;;;;;;4993851;28;20927;-75
2023/04/16 08:05:19;;;;;;;7.27;6.57;;;9.70;89.60;;;;;;4994142;28;20493;-75
2023/04/16 08:07:46;;;;;;;7.70;7.00;;;9.60;88.90;;;;;;4993846;28;20913;-75
2023/04/16 08:10:13;;;;;;;7.97;7.10;;;9.70;89.10;;;;;;4994141;28;20445;-75
2023/04/16 08:12:40;;;;;;;8.13;6.50;;;9.70;88.60;;;;;;4993680;28;20473;-75
2023/04/16 08:15:07;;;;;;;7.40;6.70;;;9.70;88.60;;;;;;4993752;28;21021;-75
2023/04/16 08:17:34;;;;;;;8.50;7.70;;;9.60;88.80;;;;;;4993960;28;20456;-75
2023/04/16 08:20:03;;;;;;;6.47;5.90;;;9.60;89.20;;;;;;4993975;28;20449;-75
2023/04/16 08:22:29;;;;;;;6.87;6.27;;;9.60;89.00;;;;;;4993830;28;21020;-76
2023/04/16 08:24:56;;;;;;;7.63;6.90;;;9.60;89.10;;;;;;4993864;28;20449;-76
2023/04/16 08:27:23;;;;;;;7.63;6.77;;;9.70;89.00;;;;;;4993860;28;20450;-76
2023/04/16 08:29:49;;;;;;;7.47;6.87;;;9.80;89.00;;;;;;4993554;28;20453;-76
2023/04/16 08:32:16;;;;;;;7.07;6.37;;;9.80;88.80;;;;;;4993762;28;20505;-76
2023/04/16 08:34:43;;;;;;;6.50;5.90;;;9.80;88.60;;;;;;4993773;28;20476;-75
2023/04/16 08:37:11;;;;;;;6.60;6.00;;;9.80;88.50;;;;;;4993768;28;20445;-75
2023/04/16 08:39:38;;;;;;;7.70;7.00;;;9.80;88.40;;;;;;4993689;28;20445;-75
2023/04/16 08:42:06;;;;;;;7.30;6.60;;;9.70;88.40;;;;;;4993411;28;20461;-75
2023/04/16 08:44:36;;;;;;;7.37;6.70;;;9.80;88.40;;;;;;4993719;28;20449;-75
2023/04/16 08:47:05;;;;;;;7.53;6.83;;;9.80;88.30;;;;;;4993379;28;20978;-75
2023/04/16 08:49:36;;;;;;;8.00;7.30;;;9.70;88.70;;;;;;4993681;28;20473;-75
2023/04/16 08:52:06;;;;;;;6.87;6.17;;;9.60;88.70;;;;;;4997328;28;20999;-74
2023/04/16 08:54:41;;;;;;;5.93;5.33;;;9.70;88.70;;;;;;4998306;28;20549;-76
2023/04/16 08:57:10;;;;;;;7.70;6.33;;;9.70;88.30;;;;;;4997327;28;20964;-75
2023/04/16 08:59:38;;;;;;;6.67;6.07;;;9.80;88.50;;;;;;4997496;28;20453;-76
2023/04/16 09:02:06;;;;;;;6.93;6.30;;;9.80;88.00;;;;;;4997282;28;20485;-75
2023/04/16 09:04:32;;;;;;;6.33;5.73;;;9.70;88.80;;;;;;4997459;28;20503;-74
2023/04/16 09:07:00;;;;;;;6.40;5.80;;;9.70;89.10;;;;;;4997015;28;20481;-74
2023/04/16 09:09:27;;;;;;;6.43;5.80;;;9.90;89.10;;;;;;4997872;28;21014;-75
2023/04/16 09:11:55;;;;;;;7.33;5.73;;;10.10;88.50;;;;;;4996945;28;21010;-75
2023/04/16 09:14:22;;;;;;;6.90;6.20;;;10.10;87.40;;;;;;4997197;28;20507;-75
2023/04/16 09:16:51;;;;;;;5.70;5.03;;;10.00;87.60;;;;;;4997450;28;20453;-76
2023/04/16 09:19:18;;;;;;;6.90;6.20;;;9.90;87.90;;;;;;4997106;28;20508;-75
2023/04/16 09:21:47;;;;;;;6.60;5.90;;;9.90;88.40;;;;;;4996990;28;20560;-75
2023/04/16 09:24:14;;;;;;;6.37;5.77;;;9.90;88.50;;;;;;4997155;28;20523;-76
2023/04/16 09:26:42;;;;;;;5.20;4.70;;;10.00;88.50;;;;;;4996939;28;20532;-76
2023/04/16 09:29:10;;;;;;;5.53;5.03;;;10.10;88.80;;;;;;4996966;28;20449;-76
2023/04/16 09:31:36;;;;;;;5.83;5.23;;;10.10;88.30;;;;;;4996791;28;20481;-76
2023/04/16 09:34:05;;;;;;;6.10;5.60;;;10.10;88.50;;;;;;4996872;28;20540;-76
2023/04/16 09:36:32;;;;;;;5.90;5.30;;;10.30;88.20;;;;;;4996777;28;20452;-77
2023/04/16 09:39:00;;;;;;;5.20;4.70;;;10.30;88.20;;;;;;4996757;28;20446;-75
2023/04/16 09:41:28;;;;;;;6.70;6.00;;;10.40;88.00;;;;;;4996702;28;20465;-75
2023/04/16 09:43:57;;;;;;;6.23;5.63;;;10.40;87.70;;;;;;4996670;28;20457;-76
2023/04/16 09:46:29;;;;;;;6.60;6.00;;;10.50;87.40;;;;;;4996574;28;20572;-75
2023/04/16 09:48:56;;;;;;;6.33;5.73;;;10.60;87.20;;;;;;4996430;28;20940;-76
2023/04/16 09:51:23;;;;;;;6.70;6.03;;;10.60;86.80;;;;;;4996492;28;20477;-75
2023/04/16 09:53:53;;;;;;;6.80;6.10;;;10.50;86.70;;;;;;4996567;28;20495;-76
2023/04/16 09:56:24;;;;;;;5.53;5.03;;;10.60;87.10;;;;;;4996511;28;20532;-75
2023/04/16 09:58:55;;;;;;;8.00;6.77;;;10.40;86.90;;;;;;4996547;28;20465;-76
2023/04/16 10:01:24;;;;;;;7.00;6.30;;;10.40;87.50;;;;;;4995677;28;21056;-76
2023/04/16 10:03:54;;;;;;;6.13;5.53;;;10.50;87.90;;;;;;4996738;28;20524;-76
2023/04/16 10:06:24;;;;;;;6.63;5.93;;;10.40;87.30;;;;;;4996806;28;20481;-74
2023/04/16 10:08:52;;;;;;;6.20;5.60;;;10.30;87.40;;;;;;4997425;28;20548;-76
2023/04/16 10:11:20;;;;;;;5.70;5.10;;;10.30;87.70;;;;;;4996552;28;20470;-76
2023/04/16 10:13:47;;;;;;;6.47;5.87;;;10.30;87.80;;;;;;4996262;28;21005;-76
2023/04/16 10:16:14;;;;;;;6.00;5.47;;;10.40;87.50;;;;;;4997210;28;20449;-76
2023/04/16 10:18:43;;;;;;;7.00;6.40;;;10.30;87.50;;;;;;4995919;28;20740;-75
2023/04/16 10:21:11;;;;;;;7.10;6.40;;;10.30;87.30;;;;;;4996334;28;20469;-76
2023/04/16 10:23:38;;;;;;;6.53;5.93;;;10.20;87.00;;;;;;4996477;28;20485;-76
2023/04/16 10:26:06;;;;;;;6.53;5.90;;;10.20;87.80;;;;;;4996270;28;20488;-75
2023/04/16 10:28:34;;;;;;;6.30;5.70;;;10.20;88.00;;;;;;4995905;28;20483;-75
2023/04/16 10:31:03;;;;;;;7.00;6.30;;;10.10;87.80;;;;;;4995815;28;20469;-75
2023/04/16 10:33:32;;;;;;;7.37;6.67;;;10.00;88.10;;;;;;4996015;28;20445;-77
2023/04/16 10:36:09;;;;;;;6.90;6.30;;;10.00;88.50;;;;;;4995736;28;20446;-76
2023/04/16 10:38:40;;;;;;;7.00;6.40;;;10.00;88.60;;;;;;4995734;28;20449;-76
2023/04/16 10:41:08;;;;;;;6.90;6.20;;;10.00;88.40;;;;;;4995900;28;20497;-76
2023/04/16 10:43:39;;;;;;;5.63;5.03;;;10.00;88.80;;;;;;4995283;28;20873;-76
2023/04/16 10:46:23;;;;;;;8.33;6.70;;;10.10;89.00;;;;;;4995586;28;20476;-76
2023/04/16 10:48:52;;;;;;;5.60;5.10;;;10.20;88.40;;;;;;4996357;28;20433;-76
2023/04/16 10:51:28;;;;;;;6.87;6.10;;;10.20;88.40;;;;;;4995420;28;20520;-76
2023/04/16 10:53:58;;;;;;;5.83;5.27;;;10.10;88.10;;;;;;4995426;28;20448;-76
2023/04/16 10:56:26;;;;;;;6.60;6.00;;;10.20;88.50;;;;;;4995397;28;20441;-76
2023/04/16 10:58:54;;;;;;;6.83;6.13;;;10.30;88.60;;;;;;4995504;28;20971;-76
2023/04/16 11:01:31;;;;;;;6.63;6.03;;;10.30;88.40;;;;;;4995044;28;20536;-76
2023/04/16 11:03:59;;;;;;;5.50;4.60;;;10.40;88.40;;;;;;4995326;28;20480;-76
2023/04/16 11:06:28;;;;;;;5.80;5.20;;;10.40;88.00;;;;;;4995920;28;20489;-76
2023/04/16 11:08:56;;;;;;;5.03;4.53;;;10.40;87.90;;;;;;4995495;28;20479;-76
2023/04/16 11:11:23;;;;;;;5.70;5.20;;;10.40;87.60;;;;;;4995224;28;20473;-76
2023/04/16 11:13:54;;;;;;;5.50;4.97;;;10.50;87.40;;;;;;4994852;28;20480;-76
2023/04/16 11:16:21;;;;;;;5.20;4.70;;;10.60;87.40;;;;;;4995211;28;20846;-76
2023/04/16 11:18:47;;;;;;;4.60;4.20;;;10.70;86.90;;;;;;4995175;28;20454;-75
2023/04/16 11:21:14;;;;;;;5.20;4.70;;;10.70;86.90;;;;;;4995166;28;20469;-75
2023/04/16 11:23:51;;;;;;;4.77;4.30;;;10.70;87.20;;;;;;4994829;28;20453;-76
2023/04/16 11:26:24;;;;;;;5.90;4.70;;;10.80;87.10;;;;;;4994844;28;20484;-76
2023/04/16 11:28:51;;;;;;;5.20;4.30;;;11.00;86.80;;;;;;4994942;28;20437;-76
2023/04/16 11:31:18;;;;;;;5.43;4.60;;;10.90;86.10;;;;;;4994783;28;20904;-76
2023/04/16 11:33:44;;;;;;;4.27;3.87;;;10.70;86.40;;;;;;4994774;28;20457;-76
2023/04/16 11:36:11;;;;;;;5.27;4.73;;;10.70;86.90;;;;;;4994698;28;20453;-76
2023/04/16 11:38:39;;;;;;;4.47;4.07;;;10.70;87.00;;;;;;4994792;28;20457;-78
2023/04/16 11:41:07;;;;;;;4.30;3.90;;;10.70;87.10;;;;;;4994730;28;20557;-74
2023/04/16 11:43:35;;;;;;;4.97;3.17;;;10.70;87.10;;;;;;4994560;28;20454;-75
2023/04/16 11:46:02;;;;;;;4.80;4.00;;;10.70;86.90;;;;;;4994163;28;20946;-75
2023/04/16 11:48:47;;;;;;;4.17;3.43;;;10.90;86.50;;;;;;4994537;28;20449;-75
2023/04/16 11:51:14;;;;;;;4.07;2.73;;;10.90;86.30;;;;;;4994413;28;20469;-75
2023/04/16 11:53:52;;;;;;;3.73;3.37;;;11.00;86.70;;;;;;4994406;28;20525;-74
2023/04/16 11:56:27;;;;;;;4.03;2.70;;;11.00;86.20;;;;;;4994397;28;20459;-74
2023/04/16 11:59:08;;;;;;;3.80;2.90;;;11.10;86.10;;;;;;4993976;28;20452;-74
2023/04/16 12:01:36;;;;;;;4.13;2.60;;;11.20;85.90;;;;;;4993976;28;20592;-74
2023/04/16 12:04:04;;;;;;;2.83;2.30;;;11.10;86.20;;;;;;4994259;28;20879;-74
2023/04/16 12:06:31;;;;;;;3.10;2.20;;;11.00;86.00;;;;;;4994347;28;20512;-74
2023/04/16 12:08:58;;;;;;;2.83;2.30;;;11.00;86.60;;;;;;4994300;28;20831;-74
2023/04/16 12:11:38;;;;;;;3.73;2.77;;;11.10;86.40;;;;;;4994160;28;20469;-75
2023/04/16 12:14:09;;;;;;;3.03;2.07;;;11.00;86.80;;;;;;4994374;28;20520;-74
2023/04/16 12:16:36;;;;;;;2.73;2.20;;;11.00;86.80;;;;;;4994113;28;20448;-74
2023/04/16 12:19:03;;;;;;;2.67;2.10;;;11.00;86.70;;;;;;4994040;28;20855;-74
2023/04/16 12:21:38;;;;;;;2.83;1.93;;;11.00;86.90;;;;;;4993934;28;20889;-74
2023/04/16 12:24:05;;;;;;;2.60;2.20;;;11.00;86.80;;;;;;4994007;28;20532;-74
2023/04/16 12:26:41;;;;;;;2.77;2.20;;;10.90;87.20;;;;;;4993510;28;20499;-75
2023/04/16 12:29:20;;;;;;;3.20;2.03;;;10.80;87.10;;;;;;4993968;28;20455;-75
2023/04/16 12:31:47;;;;;;;2.40;1.93;;;10.90;87.60;;;;;;4993562;28;21048;-75
2023/04/16 12:34:15;;;;;;;2.83;1.53;;;11.00;87.30;;;;;;4993868;28;20449;-74
2023/04/16 12:36:42;;;;;;;2.43;1.37;;;11.00;86.70;;;;;;4993835;28;20445;-73
2023/04/16 12:39:09;;;;;;;2.20;1.37;;;11.00;86.90;;;;;;4993785;28;20488;-73
2023/04/16 12:41:37;;;;;;;2.20;1.40;;;11.00;86.70;;;;;;4993326;28;20998;-74
2023/04/16 12:44:07;;;;;;;2.87;1.53;;;11.10;86.80;;;;;;4993445;28;20889;-74
2023/04/16 12:46:36;;;;;;;2.50;1.47;;;11.10;86.50;;;;;;4993983;28;20460;-74
2023/04/16 12:49:03;;;;;;;2.20;1.47;;;10.90;87.10;;;;;;4993636;28;20548;-74
2023/04/16 12:51:30;;;;;;;2.70;1.60;;;10.90;86.80;;;;;;4993579;28;20465;-74
2023/04/16 12:53:56;;;;;;;3.03;1.70;;;11.00;86.80;;;;;;4993572;28;20556;-74
2023/04/16 12:56:23;;;;;;;3.73;1.67;;;10.90;86.30;;;;;;4993632;28;20453;-74
2023/04/16 12:58:50;;;;;;;3.10;2.23;;;10.90;87.00;;;;;;4993743;28;20452;-74
2023/04/16 13:01:18;;;;;;;2.17;1.30;;;11.00;87.00;;;;;;4993332;28;20489;-75
2023/04/16 13:03:46;;;;;;;2.97;2.00;;;11.00;86.70;;;;;;4993591;28;20511;-75
2023/04/16 13:06:13;;;;;;;3.20;1.60;;;11.00;86.80;;;;;;4993637;28;20456;-74
2023/04/16 13:08:40;;;;;;;2.80;2.20;;;11.00;86.80;;;;;;4993212;28;21057;-75
2023/04/16 13:11:07;;;;;;;3.20;1.70;;;11.10;87.00;;;;;;4993498;28;20469;-76
2023/04/16 13:13:34;;;;;;;2.33;1.70;;;11.10;86.50;;;;;;4993508;28;20824;-74
2023/04/16 13:16:02;;;;;;;2.77;1.63;;;11.10;86.70;;;;;;4993757;28;20543;-75
2023/04/16 13:18:29;;;;;;;2.50;1.73;;;11.10;86.50;;;;;;4993474;28;20454;-75
2023/04/16 13:20:58;;;;;;;2.30;1.37;;;11.10;86.40;;;;;;4993446;28;20523;-74
2023/04/16 13:23:25;;;;;;;2.97;1.80;;;11.10;86.70;;;;;;4993433;28;20450;-75
2023/04/16 13:25:53;;;;;;;2.37;1.70;;;11.00;86.80;;;;;;4993414;28;20496;-73
2023/04/16 13:28:20;;;;;;;2.50;1.97;;;11.10;87.00;;;;;;4993393;28;20497;-74
2023/04/16 13:30:47;;;;;;;2.50;1.80;;;11.20;86.70;;;;;;4994154;28;20506;-74
2023/04/16 13:33:14;;;;;;;2.40;1.80;;;11.10;86.40;;;;;;4993312;28;20507;-75
2023/04/16 13:35:40;;;;;;;2.40;1.50;;;11.00;86.60;;;;;;4993035;28;20946;-74
2023/04/16 13:38:08;;;;;;;2.90;1.83;;;11.10;86.90;;;;;;4995625;28;20445;-74
2023/04/16 13:40:35;;;;;;;2.43;1.63;;;11.20;86.90;;;;;;4996773;28;20453;-73
2023/04/16 13:43:02;;;;;;;2.23;1.60;;;11.20;87.20;;;;;;4996936;28;20445;-73
2023/04/16 13:45:28;;;;;;;2.23;1.67;;;11.30;86.70;;;;;;4996734;28;20457;-74
2023/04/16 13:47:55;;;;;;;3.53;1.70;;;11.30;86.30;;;;;;4996705;28;20476;-74
2023/04/16 13:50:22;;;;;;;2.63;2.00;;;11.40;86.20;;;;;;4996578;28;20815;-74
2023/04/16 13:52:49;;;;;;;2.57;1.70;;;11.30;86.10;;;;;;4996639;28;20456;-74
2023/04/16 13:55:17;;;;;;;3.27;1.80;;;11.10;86.30;;;;;;4997018;28;20453;-73
2023/04/16 13:57:45;;;;;;;3.30;2.27;;;10.90;86.60;;;;;;4996556;28;20453;-74
2023/04/16 14:00:12;;;;;;;2.60;2.20;;;10.90;87.30;;;;;;4996481;28;20997;-74
2023/04/16 14:02:39;;;;;;;2.80;2.33;;;10.80;87.50;;;;;;4995961;28;21014;-74
2023/04/16 14:05:07;;;;;;;2.67;2.03;;;10.70;87.60;;;;;;4996404;28;20453;-74
2023/04/16 14:07:33;;;;;;;3.10;2.07;;;10.70;87.90;;;;;;4996282;28;20491;-74
2023/04/16 14:10:00;;;;;;;2.40;2.20;;;10.70;88.30;;;;;;4996319;28;20473;-74
2023/04/16 14:12:28;;;;;;;2.90;2.50;;;10.80;88.60;;;;;;4996238;28;20473;-74
2023/04/16 14:14:55;;;;;;;2.70;2.23;;;10.90;88.10;;;;;;4996229;28;20500;-74
2023/04/16 14:17:22;;;;;;;3.17;2.30;;;11.00;87.70;;;;;;4995827;28;20938;-74
2023/04/16 14:19:48;;;;;;;3.13;2.10;;;10.90;87.50;;;;;;4996146;28;20481;-73
2023/04/16 14:22:16;;;;;;;2.50;1.93;;;10.80;87.60;;;;;;4995985;28;20465;-74
2023/04/16 14:24:43;;;;;;;2.60;2.20;;;10.90;88.20;;;;;;4996035;28;20453;-74
2023/04/16 14:27:11;;;;;;;3.17;2.50;;;11.00;87.90;;;;;;4995802;28;20449;-74
2023/04/16 14:29:39;;;;;;;3.43;2.60;;;10.90;87.50;;;;;;4995874;28;20973;-75
2023/04/16 14:32:07;;;;;;;3.67;3.37;;;10.90;87.70;;;;;;4995867;28;20473;-74
2023/04/16 14:34:33;;;;;;;3.17;2.60;;;10.90;87.70;;;;;;4995839;28;20504;-73
2023/04/16 14:37:00;;;;;;;3.27;2.47;;;10.80;88.00;;;;;;4995811;28;20564;-74
2023/04/16 14:39:26;;;;;;;3.57;3.27;;;10.90;88.00;;;;;;4995778;28;20508;-75
2023/04/16 14:41:53;;;;;;;4.57;3.60;;;10.90;88.10;;;;;;4995660;28;20481;-74
2023/04/16 14:44:20;;;;;;;3.33;3.03;;;11.00;87.90;;;;;;4995713;28;20457;-74
2023/04/16 14:46:48;;;;;;;4.23;3.53;;;10.90;87.90;;;;;;4995642;28;20493;-75
2023/04/16 14:49:15;;;;;;;3.07;2.60;;;10.90;87.90;;;;;;4994850;28;21109;-76
2023/04/16 14:51:42;;;;;;;3.17;2.87;;;10.90;87.90;;;;;;4995697;28;21024;-76
2023/04/16 14:54:09;;;;;;;3.83;3.07;;;10.90;88.00;;;;;;4995598;28;20453;-76
2023/04/16 14:56:35;;;;;;;3.63;3.33;;;10.90;87.90;;;;;;4996724;28;20454;-78
2023/04/16 14:59:02;;;;;;;3.50;3.10;;;11.00;88.10;;;;;;4996352;28;20445;-77
2023/04/16 15:01:29;;;;;;;4.23;3.23;;;11.00;88.10;;;;;;4996070;28;20477;-76
2023/04/16 15:03:58;;;;;;;4.40;4.00;;;11.10;87.50;;;;;;4995691;28;20469;-76
2023/04/16 15:06:25;;;;;;;3.77;3.47;;;11.10;87.90;;;;;;4996380;28;20496;-76
2023/04/16 15:08:51;;;;;;;3.53;3.23;;;11.00;87.60;;;;;;4995868;28;21072;-77
2023/04/16 15:11:18;;;;;;;4.47;4.00;;;11.00;87.80;;;;;;4995643;28;20473;-77
2023/04/16 15:13:45;;;;;;;5.20;4.70;;;10.90;87.90;;;;;;4996030;28;20950;-76
2023/04/16 15:16:11;;;;;;;5.43;4.50;;;10.90;87.90;;;;;;4995672;28;20461;-75
2023/04/16 15:18:38;;;;;;;5.03;4.53;;;10.90;88.10;;;;;;4995381;28;20449;-75
2023/04/16 15:21:06;;;;;;;4.93;4.47;;;10.80;88.10;;;;;;4995111;28;20528;-74
2023/04/16 15:23:33;;;;;;;5.20;4.70;;;10.80;88.50;;;;;;4994920;28;20505;-73
2023/04/16 15:25:59;;;;;;;5.23;4.73;;;10.70;88.90;;;;;;4994840;28;20449;-73
2023/04/16 15:28:26;;;;;;;5.57;5.07;;;10.70;89.50;;;;;;4994796;28;20477;-74
2023/04/16 15:30:53;;;;;;;5.83;5.10;;;10.90;89.10;;;;;;4994720;28;20470;-73
2023/04/16 15:33:20;;;;;;;4.87;4.47;;;10.90;88.70;;;;;;4994733;28;20457;-74
2023/04/16 15:35:47;;;;;;;6.30;5.60;;;10.90;88.80;;;;;;4994783;28;20457;-73
2023/04/16 15:38:15;;;;;;;6.03;5.47;;;11.00;88.70;;;;;;4994647;28;20516;-73
2023/04/16 15:40:41;;;;;;;5.80;5.30;;;10.80;88.70;;;;;;4994554;28;21020;-74
2023/04/16 15:43:08;;;;;;;7.07;5.70;;;10.70;89.10;;;;;;4994631;28;20504;-74
2023/04/16 15:45:35;;;;;;;6.70;6.10;;;10.70;89.40;;;;;;4994567;28;20453;-73
2023/04/16 15:48:04;;;;;;;5.47;4.97;;;10.80;89.00;;;;;;4994463;28;20517;-74
2023/04/16 15:50:31;;;;;;;5.60;5.10;;;10.90;89.10;;;;;;4994400;28;20511;-73
2023/04/16 15:52:58;;;;;;;5.60;5.10;;;10.90;88.70;;;;;;4994697;28;20878;-74
2023/04/16 15:55:26;;;;;;;5.13;4.63;;;11.00;88.40;;;;;;4994391;28;20446;-74
2023/04/16 15:57:52;;;;;;;4.67;4.27;;;10.90;88.70;;;;;;4994314;28;20500;-74
2023/04/16 16:00:20;;;;;;;4.80;4.30;;;11.00;88.70;;;;;;4994212;28;20449;-74
2023/04/16 16:02:47;;;;;;;4.50;3.73;;;11.00;88.40;;;;;;4993952;28;20497;-74
2023/04/16 16:05:14;;;;;;;3.97;3.57;;;11.10;88.40;;;;;;4994016;28;20896;-73
2023/04/16 16:07:42;;;;;;;4.13;3.70;;;11.10;88.50;;;;;;4993848;28;20939;-73
2023/04/16 16:10:11;;;;;;;3.97;3.50;;;11.20;88.40;;;;;;4993936;28;20947;-74
2023/04/16 16:12:40;;;;;;;3.73;3.20;;;11.20;88.20;;;;;;4994089;28;20516;-74
2023/04/16 16:15:09;;;;;;;3.73;3.17;;;11.30;88.10;;;;;;4994137;28;20453;-74
2023/04/16 16:17:36;;;;;;;3.97;3.67;;;11.30;88.00;;;;;;4994102;28;20536;-73
2023/04/16 16:20:05;;;;;;;4.03;3.63;;;11.20;87.80;;;;;;4994631;28;20449;-73
2023/04/16 16:22:32;;;;;;;4.20;3.40;;;11.10;88.20;;;;;;4993986;28;20505;-73
2023/04/16 16:24:59;;;;;;;3.60;3.30;;;11.20;88.00;;;;;;4994014;28;20457;-74
2023/04/16 16:27:25;;;;;;;4.10;3.70;;;11.20;88.10;;;;;;4993968;28;20457;-74
2023/04/16 16:29:53;;;;;;;4.17;3.77;;;11.00;88.40;;;;;;4993535;28;21009;-74
2023/04/16 16:32:20;;;;;;;4.90;4.50;;;11.00;88.50;;;;;;4993870;28;20469;-73
2023/04/16 16:34:47;;;;;;;5.20;4.70;;;11.00;89.20;;;;;;4993896;28;20496;-74
2023/04/16 16:37:14;;;;;;;5.03;4.53;;;11.00;88.60;;;;;;4994328;28;20866;-74
2023/04/16 16:39:41;;;;;;;5.20;4.70;;;11.00;88.90;;;;;;4994265;28;20449;-74
2023/04/16 16:42:08;;;;;;;6.20;5.60;;;11.00;88.40;;;;;;4994104;28;20497;-74
2023/04/16 16:44:35;;;;;;;6.57;5.97;;;10.90;88.90;;;;;;4994078;28;20456;-74
2023/04/16 16:47:03;;;;;;;6.17;5.57;;;10.90;89.20;;;;;;4994804;28;20460;-73
2023/04/16 16:49:29;;;;;;;8.67;6.87;;;10.90;89.40;;;;;;4994333;28;20998;-74
2023/04/16 16:51:56;;;;;;;7.07;6.37;;;10.90;89.00;;;;;;4994050;28;21028;-73
2023/04/16 16:54:23;;;;;;;6.20;5.60;;;10.80;89.20;;;;;;4994282;28;20947;-74